Time;durP1;ratioP1;P1;durP2;ratioP2;P2;SDS_P1;SDS_P2;PMS_P1;PMS_P2;Temp;Humidity;BMP_temperature;BMP_pressure;BME280_temperature;BME280_humidity;BME280_pressure;Samples;Min_cycle;Max_cycle;Signal;HPM_P1;HPM_P2
2020/12/31 00:02:15;;;;;;;11.25;9.35;;;3.00;99.90;;;;;;5007670;28;20546;-87
2020/12/31 00:04:42;;;;;;;10.13;8.90;;;3.00;99.90;;;;;;5005593;28;20264;-86
2020/12/31 00:07:09;;;;;;;10.20;8.30;;;3.00;99.90;;;;;;5009393;28;20225;-86
2020/12/31 00:09:35;;;;;;;11.98;10.70;;;3.00;99.90;;;;;;5012917;28;20670;-87
2020/12/31 00:12:03;;;;;;;13.80;10.90;;;2.90;99.90;;;;;;5009860;28;20272;-86
2020/12/31 00:14:30;;;;;;;13.45;9.85;;;2.80;99.90;;;;;;5009315;28;20230;-86
2020/12/31 00:16:56;;;;;;;10.23;9.18;;;2.80;99.90;;;;;;5007639;28;20229;-88
2020/12/31 00:19:22;;;;;;;35.78;23.52;;;2.80;99.90;;;;;;5007614;28;20233;-87
2020/12/31 00:21:49;;;;;;;21.65;15.77;;;2.80;99.90;;;;;;5012455;28;20216;-86
2020/12/31 00:24:15;;;;;;;12.35;10.60;;;2.80;99.90;;;;;;5010997;28;20232;-87
2020/12/31 00:26:45;;;;;;;10.77;8.70;;;2.70;99.90;;;;;;5006010;28;20344;-88
2020/12/31 00:29:12;;;;;;;10.07;8.90;;;2.80;99.90;;;;;;5004456;28;20205;-88
2020/12/31 00:31:38;;;;;;;10.00;8.48;;;2.80;99.90;;;;;;5003672;28;20201;-88
2020/12/31 00:34:07;;;;;;;11.50;10.10;;;2.80;99.90;;;;;;5003470;28;20200;-87
2020/12/31 00:36:34;;;;;;;11.18;9.98;;;2.80;99.90;;;;;;5003634;28;20237;-86
2020/12/31 00:39:03;;;;;;;10.45;9.00;;;2.90;99.90;;;;;;5005156;28;20273;-86
2020/12/31 00:41:30;;;;;;;12.52;9.50;;;2.90;99.90;;;;;;5004179;28;20289;-86
2020/12/31 00:43:56;;;;;;;11.18;10.13;;;2.90;99.90;;;;;;5006418;28;20216;-87
2020/12/31 00:46:23;;;;;;;10.02;8.40;;;2.90;99.90;;;;;;5009749;28;20259;-86
2020/12/31 00:48:49;;;;;;;10.40;8.18;;;2.90;99.90;;;;;;5004216;28;20205;-87
2020/12/31 00:51:16;;;;;;;11.82;9.00;;;3.00;99.90;;;;;;5004349;28;20312;-89
2020/12/31 00:53:49;;;;;;;11.38;9.18;;;2.90;99.90;;;;;;5002606;28;20277;-88
2020/12/31 00:56:15;;;;;;;11.82;8.73;;;2.90;99.90;;;;;;5002763;28;20245;-89
2020/12/31 00:58:42;;;;;;;10.60;8.88;;;3.00;99.90;;;;;;5002517;28;20777;-86
2020/12/31 01:01:08;;;;;;;10.68;8.50;;;2.90;99.90;;;;;;5004020;28;20303;-87
2020/12/31 01:03:35;;;;;;;11.82;9.35;;;2.90;99.90;;;;;;5014101;28;20189;-86
2020/12/31 01:06:01;;;;;;;9.93;8.70;;;2.90;99.90;;;;;;5015624;28;20248;-86
2020/12/31 01:08:28;;;;;;;13.48;9.25;;;2.80;99.90;;;;;;5017811;28;20208;-86
2020/12/31 01:10:54;;;;;;;12.73;8.95;;;2.90;99.90;;;;;;5018228;28;20177;-86
2020/12/31 01:13:21;;;;;;;11.40;9.20;;;2.90;99.90;;;;;;5018245;28;20232;-87
2020/12/31 01:15:47;;;;;;;10.60;8.70;;;3.00;99.90;;;;;;5015748;28;20293;-87
2020/12/31 01:18:13;;;;;;;10.43;9.20;;;3.00;99.90;;;;;;5005031;28;20295;-88
2020/12/31 01:20:40;;;;;;;10.02;8.52;;;3.00;99.90;;;;;;5000741;28;20207;-87
2020/12/31 01:23:07;;;;;;;11.40;10.18;;;3.10;99.90;;;;;;4999583;28;20205;-88
2020/12/31 01:25:33;;;;;;;13.88;10.40;;;3.10;99.90;;;;;;5000112;28;20350;-86
2020/12/31 01:28:00;;;;;;;11.55;9.27;;;3.10;99.90;;;;;;5001502;28;20307;-85
2020/12/31 01:30:26;;;;;;;14.27;10.38;;;3.00;99.90;;;;;;5001613;28;20307;-86
2020/12/31 01:32:53;;;;;;;15.80;9.20;;;3.00;99.90;;;;;;5002175;28;20225;-87
2020/12/31 01:35:19;;;;;;;10.00;8.48;;;3.10;99.90;;;;;;5003153;28;20311;-87
2020/12/31 01:37:47;;;;;;;10.48;9.38;;;3.10;99.90;;;;;;5002818;28;20228;-87
2020/12/31 01:40:17;;;;;;;11.07;9.02;;;3.10;99.90;;;;;;5001995;28;20205;-87
2020/12/31 01:42:43;;;;;;;12.65;8.93;;;3.00;99.90;;;;;;5008708;28;20685;-87
2020/12/31 01:45:10;;;;;;;12.68;10.18;;;3.00;99.90;;;;;;5002040;28;20288;-87
2020/12/31 01:47:37;;;;;;;10.15;9.25;;;3.00;99.90;;;;;;4999953;28;20229;-88
2020/12/31 01:50:05;;;;;;;11.13;9.50;;;3.10;99.90;;;;;;4999863;28;20209;-87
2020/12/31 01:52:32;;;;;;;12.38;9.40;;;3.00;99.90;;;;;;5000062;28;20700;-88
2020/12/31 01:55:01;;;;;;;12.20;9.25;;;3.00;99.90;;;;;;4999247;28;20307;-87
2020/12/31 01:57:29;;;;;;;12.82;9.88;;;3.10;99.90;;;;;;4999051;28;20252;-88
2020/12/31 01:59:55;;;;;;;14.93;9.57;;;3.10;99.90;;;;;;4999655;28;20293;-87
2020/12/31 02:02:22;;;;;;;11.82;8.85;;;3.10;99.90;;;;;;5000556;28;20268;-89
2020/12/31 02:04:50;;;;;;;11.85;9.05;;;3.20;99.90;;;;;;5017253;28;20212;-87
2020/12/31 02:07:17;;;;;;;11.52;9.32;;;3.20;99.90;;;;;;5004158;28;20240;-89
2020/12/31 02:09:44;;;;;;;12.23;10.13;;;3.10;99.90;;;;;;5001313;28;20193;-89
2020/12/31 02:12:11;;;;;;;11.77;10.05;;;3.10;99.90;;;;;;5001020;28;20255;-87
2020/12/31 02:14:48;;;;;;;12.18;9.77;;;3.10;99.90;;;;;;5000417;28;20232;-87
2020/12/31 02:17:14;;;;;;;12.52;10.25;;;3.10;99.90;;;;;;5001017;28;20279;-88
2020/12/31 02:19:40;;;;;;;11.55;10.00;;;2.90;99.90;;;;;;5000236;28;20216;-88
2020/12/31 02:22:11;;;;;;;13.35;9.07;;;2.90;99.90;;;;;;4999895;28;20201;-87
2020/12/31 02:24:37;;;;;;;13.18;9.75;;;2.90;99.90;;;;;;5000268;28;20212;-87
2020/12/31 02:27:04;;;;;;;12.82;10.98;;;2.90;99.90;;;;;;5020986;23;20225;-82
2020/12/31 02:29:31;;;;;;;13.77;10.02;;;3.00;99.90;;;;;;4998464;28;20201;-82
2020/12/31 02:31:59;;;;;;;10.77;9.30;;;3.00;99.90;;;;;;4996908;28;20256;-82
2020/12/31 02:34:26;;;;;;;9.63;8.63;;;3.00;99.90;;;;;;4998648;28;20194;-82
2020/12/31 02:36:53;;;;;;;13.35;9.55;;;3.00;99.90;;;;;;5000225;28;20243;-81
2020/12/31 02:39:20;;;;;;;10.40;9.27;;;3.00;99.90;;;;;;5001047;28;20189;-83
2020/12/31 02:41:47;;;;;;;13.05;10.45;;;3.10;99.90;;;;;;5000877;28;20201;-83
2020/12/31 02:44:13;;;;;;;12.55;9.93;;;3.00;99.90;;;;;;5000629;28;20209;-82
2020/12/31 02:46:40;;;;;;;10.65;8.88;;;3.10;99.90;;;;;;5000279;28;20221;-83
2020/12/31 02:49:07;;;;;;;11.90;9.88;;;3.10;99.90;;;;;;4999878;28;20193;-82
2020/12/31 02:51:33;;;;;;;13.02;11.05;;;3.10;99.90;;;;;;5000102;28;20204;-82
2020/12/31 02:54:00;;;;;;;12.27;10.52;;;2.90;99.90;;;;;;5000100;28;20258;-82
2020/12/31 02:56:27;;;;;;;11.63;10.52;;;3.00;99.90;;;;;;4999889;28;20224;-82
2020/12/31 02:58:53;;;;;;;11.40;9.20;;;2.90;99.90;;;;;;5000573;28;20259;-83
2020/12/31 03:01:21;;;;;;;10.50;8.77;;;2.80;99.90;;;;;;5000394;28;20255;-83
2020/12/31 03:03:48;;;;;;;12.13;10.13;;;2.90;99.90;;;;;;5000268;28;20197;-82
2020/12/31 03:06:14;;;;;;;13.35;10.65;;;2.90;99.90;;;;;;4999953;28;20299;-82
2020/12/31 03:08:41;;;;;;;12.45;10.00;;;2.80;99.90;;;;;;5004815;28;20241;-81
2020/12/31 03:11:11;;;;;;;13.43;10.48;;;2.70;99.90;;;;;;5007744;28;20299;-82
2020/12/31 03:13:39;;;;;;;9.73;8.70;;;2.70;99.90;;;;;;5008110;28;20197;-81
2020/12/31 03:16:07;;;;;;;12.13;10.30;;;2.70;99.90;;;;;;5005682;28;20229;-81
2020/12/31 03:18:34;;;;;;;10.70;9.18;;;2.70;99.90;;;;;;5002072;28;20690;-82
2020/12/31 03:21:01;;;;;;;11.73;9.90;;;2.70;99.90;;;;;;5001631;28;20205;-82
2020/12/31 03:23:28;;;;;;;11.13;9.05;;;2.70;99.90;;;;;;5000693;28;20289;-82
2020/12/31 03:25:54;;;;;;;11.35;9.48;;;2.70;99.90;;;;;;5000728;28;20276;-83
2020/12/31 03:28:21;;;;;;;10.93;9.00;;;2.60;99.90;;;;;;5001133;28;20185;-82
2020/12/31 03:30:48;;;;;;;13.52;9.98;;;2.50;99.90;;;;;;5001473;28;20231;-83
2020/12/31 03:33:15;;;;;;;14.95;10.65;;;2.50;99.90;;;;;;5002384;28;20723;-80
2020/12/31 03:35:43;;;;;;;14.98;11.75;;;2.60;99.90;;;;;;5004655;28;20232;-82
2020/12/31 03:38:10;;;;;;;12.27;10.90;;;2.60;99.90;;;;;;5002756;28;20299;-82
2020/12/31 03:40:37;;;;;;;12.35;10.35;;;2.60;99.90;;;;;;5000676;28;20211;-82
2020/12/31 03:43:03;;;;;;;11.82;10.35;;;2.60;99.90;;;;;;5011405;28;20300;-82
2020/12/31 03:45:30;;;;;;;14.02;10.35;;;2.70;99.90;;;;;;5010778;28;20202;-83
2020/12/31 03:47:58;;;;;;;13.35;10.30;;;2.60;99.90;;;;;;5016631;28;20236;-83
2020/12/31 03:50:24;;;;;;;14.05;11.38;;;2.70;99.90;;;;;;5018668;28;20260;-84
2020/12/31 03:52:50;;;;;;;13.65;9.90;;;2.60;99.90;;;;;;5004291;28;20232;-84
2020/12/31 03:55:17;;;;;;;11.18;9.30;;;2.60;99.90;;;;;;5002349;28;20233;-83
2020/12/31 03:57:43;;;;;;;10.55;9.25;;;2.50;99.90;;;;;;5007535;28;20770;-82
2020/12/31 04:00:11;;;;;;;16.20;10.88;;;2.50;99.90;;;;;;5004592;28;20205;-82
2020/12/31 04:02:37;;;;;;;12.02;9.80;;;2.60;99.90;;;;;;5011374;28;20219;-80
2020/12/31 04:05:04;;;;;;;12.07;9.95;;;2.70;99.90;;;;;;5010907;28;20232;-80
2020/12/31 04:07:31;;;;;;;12.88;9.98;;;2.60;99.90;;;;;;5010612;28;20308;-82
2020/12/31 04:09:57;;;;;;;10.85;9.75;;;2.50;99.90;;;;;;5013118;28;20292;-83
2020/12/31 04:12:24;;;;;;;11.82;10.63;;;2.60;99.90;;;;;;5006356;28;20649;-83
2020/12/31 04:14:50;;;;;;;9.95;8.93;;;2.50;99.90;;;;;;5002787;28;20227;-80
2020/12/31 04:17:16;;;;;;;12.90;10.35;;;2.70;99.90;;;;;;5017460;28;20229;-82
2020/12/31 04:19:44;;;;;;;11.32;9.60;;;2.70;99.90;;;;;;5017039;28;20268;-82
2020/12/31 04:22:11;;;;;;;11.20;9.27;;;2.70;99.90;;;;;;5014622;28;20205;-82
2020/12/31 04:24:37;;;;;;;11.60;9.93;;;2.70;99.90;;;;;;5002323;28;20697;-83
2020/12/31 04:27:04;;;;;;;12.90;10.15;;;2.70;99.90;;;;;;5000946;28;20713;-83
2020/12/31 04:29:30;;;;;;;14.10;9.88;;;2.70;99.90;;;;;;4998891;28;20211;-83
2020/12/31 04:31:57;;;;;;;13.05;10.00;;;2.70;99.90;;;;;;4998502;28;20209;-83
2020/12/31 04:34:23;;;;;;;12.48;11.07;;;2.70;99.90;;;;;;4999685;28;20213;-81
2020/12/31 04:36:49;;;;;;;11.90;9.55;;;2.80;99.90;;;;;;4998805;28;20229;-83
2020/12/31 04:39:17;;;;;;;13.00;10.77;;;2.70;99.90;;;;;;4999255;28;20213;-82
2020/12/31 04:41:43;;;;;;;14.02;10.88;;;2.70;99.90;;;;;;4999834;28;20293;-82
2020/12/31 04:44:13;;;;;;;14.20;10.85;;;2.80;99.90;;;;;;5003107;28;20232;-82
2020/12/31 04:46:41;;;;;;;12.30;8.90;;;2.80;99.90;;;;;;5006279;28;20701;-81
2020/12/31 04:49:11;;;;;;;12.52;8.82;;;2.90;99.90;;;;;;5000759;28;20209;-82
2020/12/31 04:51:37;;;;;;;12.80;9.30;;;2.80;99.90;;;;;;4999386;28;20211;-82
2020/12/31 04:54:08;;;;;;;12.27;9.82;;;2.80;99.90;;;;;;4998427;28;20211;-82
2020/12/31 04:56:37;;;;;;;12.55;9.98;;;2.80;99.90;;;;;;4999543;28;20225;-82
2020/12/31 04:59:04;;;;;;;14.48;11.88;;;2.90;99.90;;;;;;5002112;28;20204;-81
2020/12/31 05:01:30;;;;;;;14.13;10.48;;;2.90;99.90;;;;;;4999905;28;20262;-82
2020/12/31 05:03:57;;;;;;;14.60;9.98;;;2.90;99.90;;;;;;5008030;28;20205;-83
2020/12/31 05:06:23;;;;;;;10.55;9.40;;;2.90;99.90;;;;;;5004944;28;20221;-83
2020/12/31 05:08:50;;;;;;;13.55;9.95;;;2.90;99.90;;;;;;5000586;28;20585;-83
2020/12/31 05:11:17;;;;;;;13.25;10.07;;;3.00;99.90;;;;;;5001110;28;20205;-82
2020/12/31 05:13:46;;;;;;;13.77;9.48;;;2.90;99.90;;;;;;5000620;28;20216;-83
2020/12/31 05:16:12;;;;;;;15.15;10.43;;;2.90;99.90;;;;;;4998809;28;20232;-84
2020/12/31 05:18:39;;;;;;;15.23;10.35;;;3.00;99.90;;;;;;4997660;28;20216;-83
2020/12/31 05:21:15;;;;;;;11.07;9.57;;;2.90;99.90;;;;;;4998593;28;20292;-83
2020/12/31 05:23:44;;;;;;;12.07;10.80;;;2.90;99.90;;;;;;4998709;28;20197;-83
2020/12/31 05:26:11;;;;;;;12.68;9.63;;;2.90;99.90;;;;;;4998659;28;20228;-83
2020/12/31 05:28:38;;;;;;;9.65;8.20;;;2.80;99.90;;;;;;4998707;28;20208;-84
2020/12/31 05:31:11;;;;;;;14.07;11.15;;;2.80;99.90;;;;;;5003169;28;20636;-82
2020/12/31 05:33:39;;;;;;;12.40;9.25;;;2.90;99.90;;;;;;5007421;28;20189;-82
2020/12/31 05:36:16;;;;;;;14.32;10.43;;;2.90;99.90;;;;;;5003868;28;20228;-82
2020/12/31 05:38:47;;;;;;;12.82;9.38;;;2.80;99.90;;;;;;5004666;28;20216;-83
2020/12/31 05:41:13;;;;;;;13.45;10.00;;;2.80;99.90;;;;;;5004596;28;20191;-83
2020/12/31 05:43:41;;;;;;;13.38;10.35;;;2.80;99.90;;;;;;4998562;28;20300;-83
2020/12/31 05:46:10;;;;;;;10.82;9.10;;;2.70;99.90;;;;;;4997886;28;20224;-83
2020/12/31 05:48:37;;;;;;;10.77;9.68;;;2.70;99.90;;;;;;4999142;28;20208;-83
2020/12/31 05:51:25;;;;;;;16.35;9.70;;;2.60;99.90;;;;;;4997576;28;20201;-82
2020/12/31 05:53:52;;;;;;;13.38;10.43;;;2.50;99.90;;;;;;4997089;28;20225;-81
2020/12/31 05:56:20;;;;;;;15.15;10.93;;;2.50;99.90;;;;;;4996450;28;20229;-82
2020/12/31 05:58:49;;;;;;;11.77;9.60;;;2.40;99.90;;;;;;4997540;28;20237;-81
2020/12/31 06:01:17;;;;;;;12.63;10.13;;;2.30;99.90;;;;;;4997669;28;20204;-81
2020/12/31 06:03:51;;;;;;;18.55;11.18;;;2.30;99.90;;;;;;4996370;28;20630;-81
2020/12/31 06:06:23;;;;;;;14.88;10.95;;;2.30;99.90;;;;;;4998024;28;20287;-81
2020/12/31 06:08:58;;;;;;;13.32;10.90;;;2.30;99.90;;;;;;4998795;28;20189;-82
2020/12/31 06:11:35;;;;;;;15.18;10.38;;;2.20;99.90;;;;;;5007135;28;20236;-80
2020/12/31 06:14:05;;;;;;;11.52;10.15;;;2.30;99.90;;;;;;5013310;28;20252;-82
2020/12/31 06:16:38;;;;;;;15.38;10.68;;;2.20;99.90;;;;;;5012239;28;20232;-79
2020/12/31 06:19:30;;;;;;;14.77;10.60;;;2.20;99.90;;;;;;5011697;28;20201;-79
2020/12/31 06:22:01;;;;;;;15.07;10.88;;;2.20;99.90;;;;;;4997822;28;20264;-81
2020/12/31 06:24:33;;;;;;;15.63;11.13;;;2.10;99.90;;;;;;5001242;28;20204;-83
2020/12/31 06:27:05;;;;;;;14.35;10.77;;;2.00;99.90;;;;;;5001047;28;20447;-82
2020/12/31 06:29:39;;;;;;;11.68;9.55;;;2.00;99.90;;;;;;5002274;28;20189;-82
2020/12/31 06:32:14;;;;;;;11.25;9.35;;;2.10;99.90;;;;;;5018977;28;20190;-80
2020/12/31 06:34:40;;;;;;;12.52;10.23;;;2.20;99.90;;;;;;5020379;28;20193;-81
2020/12/31 06:37:09;;;;;;;13.15;10.32;;;2.20;99.90;;;;;;5020097;28;20233;-81
2020/12/31 06:39:35;;;;;;;12.32;10.32;;;2.30;99.90;;;;;;5017831;28;20213;-82
2020/12/31 06:42:02;;;;;;;14.98;10.75;;;2.20;99.90;;;;;;5018229;28;20725;-80
2020/12/31 06:44:30;;;;;;;11.38;9.23;;;2.20;99.90;;;;;;5018059;28;20228;-80
2020/12/31 06:46:56;;;;;;;16.42;10.82;;;2.20;99.90;;;;;;5018710;28;20228;-80
2020/12/31 06:49:43;;;;;;;13.57;10.18;;;2.10;99.90;;;;;;5014069;28;20307;-83
2020/12/31 06:52:18;;;;;;;14.93;11.32;;;2.10;99.90;;;;;;5007293;28;20208;-83
2020/12/31 06:54:45;;;;;;;12.93;10.13;;;2.20;99.90;;;;;;5006730;28;20213;-81
2020/12/31 06:57:11;;;;;;;13.27;10.68;;;2.20;99.90;;;;;;5005418;28;20233;-82
2020/12/31 06:59:38;;;;;;;14.23;10.45;;;2.10;99.90;;;;;;5005007;28;20209;-82
2020/12/31 07:02:21;;;;;;;13.38;10.32;;;2.10;99.90;;;;;;5005731;28;20229;-82
2020/12/31 07:04:48;;;;;;;14.23;11.05;;;2.10;99.90;;;;;;5004011;28;20195;-82
2020/12/31 07:07:25;;;;;;;13.15;10.73;;;2.10;99.90;;;;;;4999921;28;20247;-82
2020/12/31 07:09:54;;;;;;;15.30;9.95;;;2.00;99.90;;;;;;5000400;28;20212;-82
2020/12/31 07:12:32;;;;;;;12.68;10.57;;;1.90;99.90;;;;;;4999362;28;20452;-82
2020/12/31 07:14:58;;;;;;;11.20;9.65;;;2.00;99.90;;;;;;4999687;28;20717;-82
2020/12/31 07:17:25;;;;;;;13.52;9.75;;;1.90;99.90;;;;;;4999411;28;20228;-81
2020/12/31 07:19:59;;;;;;;12.35;9.20;;;2.00;99.90;;;;;;4999986;28;20205;-82
2020/12/31 07:22:28;;;;;;;13.40;9.73;;;2.00;99.90;;;;;;5002436;28;20212;-82
2020/12/31 07:24:56;;;;;;;12.52;10.20;;;2.00;99.90;;;;;;5007103;28;20441;-81
2020/12/31 07:27:28;;;;;;;20.65;13.13;;;2.10;99.90;;;;;;5009232;28;20743;-82
2020/12/31 07:30:10;;;;;;;12.27;10.15;;;1.90;99.90;;;;;;5008079;28;20209;-82
2020/12/31 07:32:57;;;;;;;10.65;8.57;;;1.90;99.90;;;;;;5005859;28;20272;-81
2020/12/31 07:35:30;;;;;;;13.88;10.40;;;1.90;99.90;;;;;;5001884;28;20224;-82
2020/12/31 07:37:58;;;;;;;13.45;10.52;;;1.80;99.90;;;;;;5000309;28;20865;-82
2020/12/31 07:40:28;;;;;;;13.48;10.77;;;1.80;99.90;;;;;;4999691;28;20726;-82
2020/12/31 07:42:54;;;;;;;13.88;9.98;;;1.80;99.90;;;;;;4999668;28;20292;-82
2020/12/31 07:45:21;;;;;;;11.68;9.32;;;1.80;99.90;;;;;;4999570;28;20298;-82
2020/12/31 07:47:50;;;;;;;12.73;10.75;;;1.90;99.90;;;;;;4999361;28;20235;-82
2020/12/31 07:50:16;;;;;;;14.32;9.85;;;2.00;99.90;;;;;;5000766;28;20236;-82
2020/12/31 07:52:43;;;;;;;15.60;11.15;;;2.00;99.90;;;;;;5000762;28;20231;-82
2020/12/31 07:55:10;;;;;;;13.43;11.00;;;2.00;99.90;;;;;;5002907;28;20205;-83
2020/12/31 07:57:37;;;;;;;10.07;9.00;;;2.10;99.90;;;;;;5010902;28;20229;-83
2020/12/31 08:00:04;;;;;;;9.70;8.63;;;2.10;99.90;;;;;;5015999;28;20212;-84
2020/12/31 08:02:31;;;;;;;14.70;9.77;;;2.20;99.90;;;;;;5012033;28;20292;-83
2020/12/31 08:04:57;;;;;;;12.13;8.90;;;2.30;99.90;;;;;;5007699;28;20264;-83
2020/12/31 08:07:24;;;;;;;11.52;8.95;;;2.30;99.90;;;;;;5004100;28;20221;-82
2020/12/31 08:09:51;;;;;;;10.63;9.10;;;2.40;99.90;;;;;;5005181;28;20209;-82
2020/12/31 08:12:17;;;;;;;10.55;8.75;;;2.60;99.90;;;;;;5003029;28;20682;-82
2020/12/31 08:14:46;;;;;;;10.77;8.63;;;2.60;99.90;;;;;;5000611;28;20639;-83
2020/12/31 08:17:12;;;;;;;8.98;7.90;;;2.80;99.90;;;;;;5001107;28;20247;-83
2020/12/31 08:19:40;;;;;;;12.23;9.52;;;2.80;99.90;;;;;;5001353;28;20205;-83
2020/12/31 08:22:17;;;;;;;12.02;10.23;;;2.70;99.90;;;;;;4999892;28;20292;-82
2020/12/31 08:24:49;;;;;;;10.02;8.93;;;2.60;99.90;;;;;;4999672;28;20272;-82
2020/12/31 08:38:53;;;;;;;11.38;8.75;;;3.00;99.90;;;;;;4966904;28;20304;-89
2020/12/31 08:41:34;;;;;;;10.40;8.43;;;3.00;99.90;;;;;;4997890;28;20259;-89
2020/12/31 08:44:19;;;;;;;9.50;8.20;;;3.00;99.90;;;;;;4999030;28;20189;-89
2020/12/31 09:04:21;;;;;;;10.45;8.68;;;3.30;99.90;;;;;;4934916;29;20460;-87
2020/12/31 09:06:57;;;;;;;10.20;8.55;;;3.20;99.90;;;;;;4996927;28;20505;-88
2020/12/31 09:20:47;;;;;;;9.98;7.75;;;3.60;99.90;;;;;;4899199;29;20706;-88
2020/12/31 09:23:58;;;;;;;8.60;7.07;;;3.70;99.90;;;;;;4940566;28;20712;-87
2020/12/31 09:30:22;;;;;;;7.25;6.25;;;3.80;99.90;;;;;;4858587;29;20585;-88
2020/12/31 09:33:25;;;;;;;7.90;7.10;;;3.70;99.90;;;;;;4921858;29;20203;-88
2020/12/31 10:09:19;;;;;;;11.20;8.25;;;4.20;99.90;;;;;;5002944;23;20240;-88
2020/12/31 10:11:46;;;;;;;10.80;7.30;;;4.20;99.90;;;;;;5000384;28;20661;-87
2020/12/31 10:14:13;;;;;;;12.38;10.25;;;4.10;99.90;;;;;;5006341;28;20247;-88
2020/12/31 10:16:40;;;;;;;9.05;7.57;;;4.20;99.90;;;;;;5002787;28;20229;-87
2020/12/31 10:19:11;;;;;;;10.65;8.40;;;4.30;99.90;;;;;;5001854;28;20756;-88
2020/12/31 10:21:38;;;;;;;9.32;7.28;;;4.30;99.90;;;;;;5007142;28;20197;-88
2020/12/31 10:24:14;;;;;;;10.48;9.38;;;4.50;99.90;;;;;;5018014;28;20201;-91
2020/12/31 10:26:56;;;;;;;9.20;7.18;;;4.50;99.90;;;;;;5015350;28;20239;-87
2020/12/31 10:30:00;;;;;;;8.75;7.88;;;4.60;99.90;;;;;;5003109;28;20224;-88
2020/12/31 10:32:50;;;;;;;11.50;9.50;;;4.40;99.90;;;;;;5000143;28;20204;-88
2020/12/31 10:41:50;;;;;;;7.22;6.53;;;4.50;99.90;;;;;;4990502;28;20213;-88
2020/12/31 10:44:29;;;;;;;7.30;6.70;;;4.50;99.90;;;;;;4997064;28;20224;-88
2020/12/31 10:46:56;;;;;;;8.00;7.18;;;4.60;99.90;;;;;;5000536;28;20701;-88
2020/12/31 10:49:49;;;;;;;7.30;6.60;;;4.60;99.90;;;;;;4998896;28;20205;-89
2020/12/31 10:52:24;;;;;;;7.63;6.90;;;4.60;99.90;;;;;;5006551;28;20225;-88
2020/12/31 10:55:05;;;;;;;7.38;6.63;;;4.70;99.90;;;;;;5016004;28;20215;-88
2020/12/31 10:57:46;;;;;;;9.20;7.10;;;4.80;99.90;;;;;;5002058;28;20221;-88
2020/12/31 11:00:19;;;;;;;7.47;6.78;;;4.80;99.90;;;;;;5002261;28;20205;-88
2020/12/31 11:02:47;;;;;;;9.15;7.18;;;4.70;99.90;;;;;;5001429;28;20201;-88
2020/12/31 11:05:15;;;;;;;7.47;6.70;;;4.80;99.90;;;;;;5001180;28;20287;-88
2020/12/31 11:07:44;;;;;;;7.35;6.30;;;4.90;99.90;;;;;;5002351;28;20316;-88
2020/12/31 11:10:11;;;;;;;6.65;5.90;;;5.00;99.90;;;;;;5002281;28;20217;-87
2020/12/31 11:12:38;;;;;;;7.22;6.53;;;5.00;99.90;;;;;;5001307;28;20209;-88
2020/12/31 11:15:05;;;;;;;9.30;7.05;;;5.20;99.90;;;;;;5002599;28;20201;-88
2020/12/31 11:17:33;;;;;;;6.75;6.15;;;5.10;99.90;;;;;;5017540;28;20267;-87
2020/12/31 11:20:00;;;;;;;10.00;6.50;;;5.10;99.90;;;;;;5021388;28;20193;-89
2020/12/31 11:25:39;;;;;;;8.23;6.55;;;5.10;99.90;;;;;;5005352;28;20212;-88
2020/12/31 11:37:53;;;;;;;8.80;6.65;;;4.80;99.90;;;;;;4902504;29;20278;-89
2020/12/31 11:40:19;;;;;;;7.05;6.22;;;5.00;99.90;;;;;;4938564;29;20768;-88
2020/12/31 11:42:51;;;;;;;8.05;7.20;;;4.90;99.90;;;;;;4995504;28;20231;-89
2020/12/31 11:45:17;;;;;;;7.15;6.50;;;4.90;99.90;;;;;;5020396;28;20185;-87
2020/12/31 11:47:53;;;;;;;8.30;6.22;;;4.90;99.90;;;;;;5020722;28;20201;-88
2020/12/31 11:50:40;;;;;;;6.88;6.28;;;4.90;99.90;;;;;;5019726;28;20240;-89
2020/12/31 11:56:26;;;;;;;8.80;7.15;;;5.10;99.90;;;;;;4960034;28;20223;-88
2020/12/31 11:59:52;;;;;;;8.82;7.88;;;5.10;99.90;;;;;;4953615;29;20214;-88
2020/12/31 12:02:36;;;;;;;9.25;7.47;;;4.90;99.90;;;;;;4960208;28;20259;-89
2020/12/31 12:05:18;;;;;;;7.53;6.85;;;4.90;99.90;;;;;;4961686;28;20183;-89
2020/12/31 12:11:56;;;;;;;;;;;;;;;;;;;;;
2020/12/31 12:18:28;;;;;;;9.18;7.80;;;4.70;99.90;;;;;;5018854;28;20243;-88
2020/12/31 12:21:04;;;;;;;10.10;8.25;;;4.70;99.90;;;;;;5018794;28;20228;-89
2020/12/31 12:26:50;;;;;;;9.13;8.23;;;4.80;99.90;;;;;;5019995;28;20260;-89
2020/12/31 12:35:51;;;;;;;8.55;7.65;;;4.80;99.90;;;;;;5005447;28;20189;-90
2020/12/31 12:38:42;;;;;;;9.25;7.90;;;5.00;99.90;;;;;;5019685;28;20217;-89
2020/12/31 12:47:25;;;;;;;7.70;6.80;;;5.00;99.90;;;;;;5018490;28;20293;-89
2020/12/31 13:00:07;;;;;;;7.40;6.70;;;5.00;99.90;;;;;;4836312;29;20225;-87
2020/12/31 13:02:59;;;;;;;7.85;6.63;;;5.10;99.90;;;;;;4883841;29;20205;-88
2020/12/31 13:12:01;;;;;;;10.27;7.10;;;5.00;99.90;;;;;;4993831;28;20217;-88
2020/12/31 13:14:50;;;;;;;7.68;6.90;;;5.00;99.90;;;;;;4999031;28;20642;-88
2020/12/31 13:17:28;;;;;;;9.27;7.30;;;5.10;99.90;;;;;;5000051;28;20563;-87
2020/12/31 13:20:15;;;;;;;8.85;6.55;;;5.00;99.90;;;;;;4998945;28;20219;-87
2020/12/31 13:22:43;;;;;;;8.95;6.97;;;4.90;99.90;;;;;;5000331;28;20232;-88
2020/12/31 13:25:16;;;;;;;8.20;7.00;;;4.90;99.90;;;;;;4999435;28;20209;-87
2020/12/31 13:27:49;;;;;;;9.25;8.35;;;4.90;99.90;;;;;;4998549;28;20221;-88
2020/12/31 13:30:19;;;;;;;9.40;7.55;;;5.10;99.90;;;;;;5012801;28;20215;-88
2020/12/31 13:33:01;;;;;;;8.00;6.82;;;5.00;99.90;;;;;;5017310;28;20216;-87
2020/12/31 13:35:28;;;;;;;7.65;6.63;;;5.00;99.90;;;;;;5006471;28;20205;-87
2020/12/31 13:38:00;;;;;;;8.65;7.70;;;5.10;99.90;;;;;;5003357;28;20225;-88
2020/12/31 13:40:41;;;;;;;8.88;7.90;;;4.90;99.90;;;;;;5000175;28;20209;-88
2020/12/31 13:43:26;;;;;;;7.03;6.32;;;4.90;99.90;;;;;;4997993;28;20239;-87
2020/12/31 14:13:09;;;;;;;7.88;7.07;;;4.90;99.90;;;;;;4735621;30;20336;-86
2020/12/31 14:15:38;;;;;;;8.57;6.30;;;4.80;99.90;;;;;;4812245;29;20241;-85
2020/12/31 14:18:05;;;;;;;6.57;5.90;;;4.80;99.90;;;;;;4995754;28;20763;-85
2020/12/31 14:20:32;;;;;;;7.88;7.13;;;4.70;99.90;;;;;;4999690;28;20205;-83
2020/12/31 14:23:12;;;;;;;8.88;7.90;;;4.80;99.90;;;;;;4998790;28;20621;-88
2020/12/31 14:26:12;;;;;;;;;;;;;;;;;;;;;
2020/12/31 15:06:11;;;;;;;10.80;8.98;;;4.50;99.90;;;;;;4803248;29;20308;-90
2020/12/31 15:16:13;;;;;;;8.15;7.45;;;4.30;99.90;;;;;;4941157;29;20210;-89
2020/12/31 15:19:35;;;;;;;10.07;7.45;;;4.20;99.90;;;;;;4947101;29;20250;-89
2020/12/31 15:51:22;;;;;;;12.55;9.10;;;4.10;99.90;;;;;;5001402;28;20233;-87
2020/12/31 15:53:51;;;;;;;10.85;9.45;;;4.20;99.90;;;;;;5002441;28;20201;-87
2020/12/31 15:56:17;;;;;;;10.98;9.40;;;4.20;99.90;;;;;;5000684;28;20456;-88
2020/12/31 15:58:44;;;;;;;15.77;9.68;;;4.30;99.90;;;;;;5003389;28;20201;-87
2020/12/31 16:01:13;;;;;;;10.55;8.45;;;4.30;99.90;;;;;;5003804;28;20464;-86
2020/12/31 16:03:39;;;;;;;9.32;8.13;;;4.40;99.90;;;;;;5038450;22;20193;31
2020/12/31 16:06:26;;;;;;;11.45;8.40;;;4.40;99.90;;;;;;4992500;28;20224;-84
2020/12/31 16:08:53;;;;;;;10.55;8.32;;;4.40;99.90;;;;;;4995561;28;20221;-81
2020/12/31 16:11:20;;;;;;;10.55;7.88;;;4.20;99.90;;;;;;4997793;28;20222;-85
2020/12/31 16:13:46;;;;;;;9.13;8.32;;;4.30;99.90;;;;;;4993540;28;20237;-86
2020/12/31 16:16:13;;;;;;;12.90;10.55;;;4.20;99.90;;;;;;4985894;28;20714;-85
2020/12/31 16:18:40;;;;;;;10.85;9.75;;;4.20;99.90;;;;;;4983717;28;20215;-85
2020/12/31 16:21:07;;;;;;;10.18;8.93;;;4.20;99.90;;;;;;4983808;28;20292;-83
2020/12/31 16:23:36;;;;;;;13.45;9.85;;;4.20;99.90;;;;;;4984483;28;20279;-85
2020/12/31 16:26:04;;;;;;;8.73;7.80;;;4.20;99.90;;;;;;4984795;28;20208;-84
2020/12/31 16:28:32;;;;;;;14.75;11.93;;;4.20;99.90;;;;;;4992898;28;20437;-86
2020/12/31 16:31:27;;;;;;;15.63;11.73;;;4.20;99.90;;;;;;4991046;28;20205;-84
2020/12/31 16:33:57;;;;;;;14.32;11.13;;;4.10;99.90;;;;;;4987909;28;20487;-84
2020/12/31 16:36:24;;;;;;;14.73;10.30;;;4.10;99.90;;;;;;4986962;28;20228;-85
2020/12/31 16:38:52;;;;;;;15.77;11.43;;;4.00;99.90;;;;;;4988279;28;20213;-84
2020/12/31 16:41:22;;;;;;;18.40;12.77;;;4.00;99.90;;;;;;4991353;28;20224;-84
2020/12/31 16:43:50;;;;;;;15.23;11.52;;;4.00;99.90;;;;;;4993776;28;20201;-82
2020/12/31 16:46:19;;;;;;;14.23;10.90;;;4.00;99.90;;;;;;4998035;28;20216;-81
2020/12/31 16:48:45;;;;;;;19.85;13.40;;;4.00;99.90;;;;;;4996716;28;20217;-83
2020/12/31 16:51:12;;;;;;;14.68;10.57;;;4.00;99.90;;;;;;4994712;28;20230;-84
2020/12/31 16:53:39;;;;;;;53.08;47.50;;;4.00;99.90;;;;;;4985488;28;20478;-83
2020/12/31 16:56:05;;;;;;;15.15;12.50;;;4.10;99.90;;;;;;4984810;28;20213;-83
2020/12/31 16:58:32;;;;;;;38.90;30.20;;;4.00;99.90;;;;;;4983736;28;20240;-84
2020/12/31 17:00:59;;;;;;;270.85;223.30;;;4.00;99.90;;;;;;4981120;28;20206;-84
2020/12/31 17:03:25;;;;;;;19.85;15.15;;;4.00;99.90;;;;;;4981443;28;20636;-83
2020/12/31 17:05:51;;;;;;;18.83;12.75;;;4.00;99.90;;;;;;4981269;28;20230;-85
2020/12/31 17:08:18;;;;;;;13.50;11.77;;;4.10;99.90;;;;;;4980560;28;20865;-86